Time;durP1;ratioP1;P1;durP2;ratioP2;P2;SDS_P1;SDS_P2;PMS_P1;PMS_P2;Temp;Humidity;BMP_temperature;BMP_pressure;BME280_temperature;BME280_humidity;BME280_pressure;Samples;Min_cycle;Max_cycle;Signal;HPM_P1;HPM_P2
2022/10/07 00:00:55;;;;;;;18.90;14.30;;;;;;;6.26;83.53;101945.33;86170;1288;93353;-57
2022/10/07 00:03:13;;;;;;;24.90;18.00;;;;;;;6.26;83.32;101956.72;86186;1287;81739;-61
2022/10/07 00:05:22;;;;;;;34.90;24.00;;;;;;;6.24;83.40;101955.70;86209;1295;80708;-62
2022/10/07 00:07:34;;;;;;;31.60;21.90;;;;;;;6.24;83.52;101952.46;86190;1287;96773;-60
2022/10/07 00:09:43;;;;;;;30.30;22.30;;;;;;;6.25;83.44;101954.16;86146;1287;87104;-62
2022/10/07 00:11:58;;;;;;;32.80;23.30;;;;;;;6.23;83.53;101955.44;86211;1288;94162;-62
2022/10/07 00:14:09;;;;;;;34.50;21.70;;;;;;;6.21;83.68;101953.40;86237;1293;80709;-59
2022/10/07 00:16:23;;;;;;;26.50;20.10;;;;;;;6.19;83.71;101956.05;86217;1287;82618;-58
2022/10/07 00:18:30;;;;;;;;;;;;;;;6.16;83.74;101954.15;86200;1288;97822;-61
2022/10/07 00:20:42;;;;;;;26.70;19.80;;;;;;;6.13;83.76;101952.13;86246;1288;86690;-58
2022/10/07 00:22:52;;;;;;;27.90;20.10;;;;;;;6.13;83.81;101951.92;86248;1295;94965;-57
2022/10/07 00:25:00;;;;;;;24.60;18.80;;;;;;;6.13;83.84;101952.98;86215;1288;81501;-58
2022/10/07 00:27:09;;;;;;;23.00;17.00;;;;;;;6.14;83.98;101952.56;86234;1287;80809;-56
2022/10/07 00:29:18;;;;;;;20.10;15.60;;;;;;;6.13;83.91;101949.77;86163;1290;100979;-58
2022/10/07 00:31:29;;;;;;;20.10;15.40;;;;;;;6.11;83.83;101949.98;86183;1289;88479;-57
2022/10/07 00:33:40;;;;;;;22.90;16.00;;;;;;;6.08;83.84;101951.42;86171;1289;95096;-58
2022/10/07 00:35:50;;;;;;;23.00;15.90;;;;;;;6.07;83.93;101950.47;86176;1288;81790;-60
2022/10/07 00:37:58;;;;;;;22.50;15.60;;;;;;;6.07;84.18;101945.95;86186;1287;82695;-62
2022/10/07 00:40:09;;;;;;;22.20;16.10;;;;;;;6.07;83.99;101944.14;86229;1287;97745;-63
2022/10/07 00:42:20;;;;;;;19.20;14.30;;;;;;;6.07;83.79;101943.27;86208;1293;89146;-62
2022/10/07 00:44:47;;;;;;;24.50;15.30;;;;;;;6.06;83.87;101944.77;86200;1287;93477;-58
2022/10/07 00:46:57;;;;;;;19.70;15.00;;;;;;;6.04;83.99;101939.77;86218;1293;80664;-57
2022/10/07 00:49:09;;;;;;;19.70;15.00;;;;;;;6.01;84.11;101941.61;86172;1289;82762;-57
2022/10/07 00:51:19;;;;;;;21.60;14.00;;;;;;;5.96;84.12;101945.94;86191;1288;98069;-57
2022/10/07 00:53:34;;;;;;;17.80;14.20;;;;;;;5.94;84.00;101946.98;86166;1288;86191;-58
2022/10/07 00:55:44;;;;;;;18.00;13.00;;;;;;;5.93;84.11;101945.30;86182;1295;95674;-58
2022/10/07 00:57:57;;;;;;;16.80;12.80;;;;;;;5.92;84.14;101945.91;86216;1288;80463;-60
2022/10/07 01:00:11;;;;;;;19.80;11.60;;;;;;;5.88;84.20;101943.05;86240;1293;83233;-60
2022/10/07 01:02:20;;;;;;;19.00;12.00;;;;;;;5.87;84.44;101946.64;86231;1288;96371;-60
2022/10/07 01:04:29;;;;;;;18.20;12.00;;;;;;;5.90;84.35;101941.37;86250;1295;88429;-62
2022/10/07 01:06:38;;;;;;;21.40;14.40;;;;;;;5.96;84.34;101943.30;86225;1289;94198;-64
2022/10/07 01:08:52;;;;;;;19.20;13.00;;;;;;;5.99;84.40;101944.80;86267;1287;81809;-62
2022/10/07 01:11:13;;;;;;;24.60;13.20;;;;;;;6.00;84.46;101942.04;86217;1287;80963;-61
2022/10/07 01:13:32;;;;;;;17.40;12.10;;;;;;;5.98;84.55;101939.70;86212;1287;99129;-58
2022/10/07 01:15:49;;;;;;;17.20;12.50;;;;;;;6.00;84.50;101936.35;86146;1288;88311;-59
2022/10/07 01:18:13;;;;;;;18.00;12.40;;;;;;;6.01;84.52;101938.02;86194;1285;95297;-59
2022/10/07 01:20:35;;;;;;;22.40;13.30;;;;;;;6.04;84.50;101938.48;86182;1294;80735;-58
2022/10/07 01:22:52;;;;;;;20.50;13.90;;;;;;;6.04;84.64;101936.80;86194;1294;81652;-61
2022/10/07 01:25:21;;;;;;;21.10;13.80;;;;;;;6.03;84.62;101937.34;86161;1281;97195;-61
2022/10/07 01:27:35;;;;;;;20.80;12.90;;;;;;;5.99;84.60;101932.55;86212;1287;87997;-59
2022/10/07 01:29:54;;;;;;;19.80;12.80;;;;;;;5.99;84.65;101931.03;86159;1288;93895;-63
2022/10/07 01:32:08;;;;;;;19.80;12.90;;;;;;;5.98;84.42;101929.89;86166;1295;81504;-61
2022/10/07 01:34:17;;;;;;;;;;;;;;;5.94;84.62;101938.09;86203;1294;82964;-62
2022/10/07 01:36:28;;;;;;;19.30;12.40;;;;;;;5.92;84.56;101937.50;86223;1287;97677;-62
2022/10/07 01:38:41;;;;;;;28.50;14.70;;;;;;;5.88;84.58;101939.05;86178;1297;88569;-60
2022/10/07 01:40:54;;;;;;;32.30;17.00;;;;;;;5.86;84.67;101939.77;86182;1287;95454;-60
2022/10/07 01:43:05;;;;;;;36.40;18.60;;;;;;;5.85;84.62;101944.50;86247;1290;81020;-62
2022/10/07 01:45:20;;;;;;;46.60;20.30;;;;;;;5.80;84.67;101936.99;86236;1288;83522;-63
2022/10/07 01:47:33;;;;;;;39.10;18.60;;;;;;;5.76;84.84;101937.34;86222;1293;97263;-61
2022/10/07 01:49:45;;;;;;;47.50;22.40;;;;;;;5.75;84.92;101934.21;86220;1285;88198;-62
2022/10/07 01:52:14;;;;;;;40.90;19.40;;;;;;;5.74;84.81;101937.85;86219;1293;95824;-63
2022/10/07 01:54:39;;;;;;;44.90;19.60;;;;;;;5.71;84.85;101936.33;86222;1291;82270;-61
2022/10/07 01:57:05;;;;;;;47.00;19.10;;;;;;;5.69;85.00;101939.52;86212;1292;82923;-60
2022/10/07 01:59:44;;;;;;;51.50;23.50;;;;;;;5.68;84.87;101935.98;86155;1295;99248;-62
2022/10/07 02:02:03;;;;;;;51.40;23.10;;;;;;;5.66;84.88;101937.40;85887;1293;430117;-63
2022/10/07 02:04:36;;;;;;;47.50;22.10;;;;;;;5.66;84.91;101934.44;86203;1288;95120;-63
2022/10/07 02:06:55;;;;;;;53.40;22.80;;;;;;;5.65;85.09;101932.48;86169;1294;80750;-62
2022/10/07 02:09:11;;;;;;;51.90;22.80;;;;;;;5.64;85.07;101933.84;86169;1288;82512;-59
2022/10/07 02:18:20;;;;;;;50.50;23.50;;;;;;;5.57;85.08;101940.07;86072;1291;93939;-61
2022/10/07 02:20:33;;;;;;;51.90;25.60;;;;;;;5.54;85.09;101940.17;86105;1295;82890;-61
2022/10/07 02:22:45;;;;;;;44.80;24.10;;;;;;;5.52;85.17;101936.55;86124;1291;83256;-59
2022/10/07 02:24:58;;;;;;;42.70;21.50;;;;;;;5.52;85.15;101938.41;86105;1291;99061;-59
2022/10/07 02:27:12;;;;;;;38.60;19.70;;;;;;;5.52;85.13;101934.40;86135;1292;86629;-58
2022/10/07 02:29:25;;;;;;;37.90;20.50;;;;;;;5.51;85.19;101935.09;86119;1297;93366;-58
2022/10/07 02:31:37;;;;;;;31.10;18.40;;;;;;;5.51;85.13;101938.63;86145;1291;80878;-59
2022/10/07 02:33:52;;;;;;;34.60;19.00;;;;;;;5.48;85.16;101934.23;86191;1290;81603;-60
2022/10/07 02:36:09;;;;;;;33.00;18.10;;;;;;;5.48;85.41;101932.81;86119;1291;97941;-62
2022/10/07 02:38:19;;;;;;;30.20;18.90;;;;;;;5.44;85.29;101932.71;86145;1297;89037;-58
2022/10/07 02:40:36;;;;;;;32.90;20.40;;;;;;;5.46;85.48;101932.76;86121;1291;93343;-58
2022/10/07 02:42:53;;;;;;;30.50;18.90;;;;;;;5.46;85.40;101935.63;85958;1291;82333;-62
2022/10/07 02:45:11;;;;;;;28.80;18.70;;;;;;;5.45;85.52;101935.14;86036;1285;80294;-63
2022/10/07 02:47:29;;;;;;;28.10;18.70;;;;;;;5.47;85.47;101935.38;86037;1291;98662;-61
2022/10/07 02:49:42;;;;;;;30.50;18.00;;;;;;;5.45;85.41;101934.24;86009;1298;87824;-62
2022/10/07 02:52:00;;;;;;;24.20;16.80;;;;;;;5.43;85.35;101937.83;86017;1291;95749;-63
2022/10/07 02:54:09;;;;;;;25.30;17.40;;;;;;;5.43;85.33;101935.69;85997;1297;82340;-62
2022/10/07 02:56:21;;;;;;;24.70;16.20;;;;;;;5.42;85.37;101935.06;86018;1297;81789;-62
2022/10/07 02:58:30;;;;;;;21.60;15.90;;;;;;;5.40;85.42;101934.81;86025;1298;98511;-62
2022/10/07 03:00:46;;;;;;;26.90;14.40;;;;;;;5.38;85.42;101929.98;86010;1292;88277;-62
2022/10/07 03:02:57;;;;;;;21.90;13.60;;;;;;;5.37;85.28;101927.19;85959;1294;95835;-59
2022/10/07 03:05:09;;;;;;;20.30;13.50;;;;;;;5.33;85.59;101928.91;86047;1295;82281;-58
2022/10/07 03:07:19;;;;;;;18.90;11.40;;;;;;;5.28;85.50;101926.10;86042;1291;82286;-58
2022/10/07 03:09:28;;;;;;;20.40;11.40;;;;;;;5.26;85.39;101930.33;86036;1290;98524;-63
2022/10/07 03:11:40;;;;;;;16.00;11.40;;;;;;;5.24;85.55;101931.06;86100;1291;87812;-59
2022/10/07 03:13:49;;;;;;;16.70;10.80;;;;;;;5.20;85.41;101930.84;86030;1297;92870;-58
2022/10/07 03:15:57;;;;;;;15.90;10.70;;;;;;;5.17;85.49;101928.36;86013;1297;82355;-52
2022/10/07 03:18:24;;;;;;;14.20;10.30;;;;;;;5.16;85.40;101926.86;85960;1300;81414;-57
2022/10/07 03:20:36;;;;;;;13.50;9.10;;;;;;;5.16;85.67;101925.63;85924;1297;98404;-58
2022/10/07 03:22:45;;;;;;;13.20;9.50;;;;;;;5.15;85.41;101927.27;85918;1293;87506;-60
2022/10/07 03:24:54;;;;;;;15.60;10.10;;;;;;;5.16;85.56;101928.64;85908;1293;95207;-59
2022/10/07 03:27:06;;;;;;;12.00;8.20;;;;;;;5.15;85.54;101927.80;85928;1301;81839;-57
2022/10/07 03:29:14;;;;;;;13.50;9.30;;;;;;;5.15;85.46;101929.09;85880;1294;84969;-58
2022/10/07 03:31:24;;;;;;;14.10;11.10;;;;;;;5.14;85.40;101931.17;85831;1293;98951;-58
2022/10/07 03:33:33;;;;;;;16.60;12.20;;;;;;;5.11;85.41;101925.98;85936;1300;88049;-59
2022/10/07 03:35:42;;;;;;;19.90;12.70;;;;;;;5.06;85.21;101930.88;85906;1295;94876;-59
2022/10/07 03:37:51;;;;;;;16.40;12.70;;;;;;;5.02;85.36;101928.15;85839;1301;81389;-63
2022/10/07 03:40:00;;;;;;;15.00;12.60;;;;;;;4.98;85.36;101918.23;85855;1295;83136;-63
2022/10/07 03:42:10;;;;;;;15.30;12.50;;;;;;;4.94;85.47;101919.66;85851;1300;98547;-62
2022/10/07 03:44:18;;;;;;;15.90;12.50;;;;;;;4.92;85.59;101920.70;85897;1293;88037;-61
2022/10/07 03:46:28;;;;;;;15.60;11.40;;;;;;;4.92;85.45;101919.80;85872;1294;95298;-63
2022/10/07 03:48:36;;;;;;;14.30;12.50;;;;;;;4.94;85.43;101917.17;85803;1301;83795;-60
2022/10/07 03:50:51;;;;;;;15.30;11.30;;;;;;;4.91;85.37;101919.50;85918;1293;81495;-61
2022/10/07 03:53:01;;;;;;;12.80;11.10;;;;;;;4.91;85.49;101916.32;85921;1294;98058;-59
2022/10/07 03:55:12;;;;;;;12.70;10.30;;;;;;;4.89;85.58;101914.14;85860;1300;89086;-60
2022/10/07 03:59:46;;;;;;;14.30;9.90;;;;;;;4.88;85.80;101912.64;85904;1300;81978;-60
2022/10/07 04:01:55;;;;;;;14.00;9.10;;;;;;;4.90;85.79;101910.29;85917;1294;82307;-61
2022/10/07 04:04:03;;;;;;;13.60;10.30;;;;;;;4.86;85.90;101910.45;85936;1300;99559;-60
2022/10/07 04:06:15;;;;;;;14.80;10.20;;;;;;;4.83;85.76;101908.70;85929;1298;88941;-60
2022/10/07 04:08:26;;;;;;;13.30;8.80;;;;;;;4.83;85.75;101906.36;85895;1300;95579;-59
2022/10/07 04:10:36;;;;;;;12.90;8.60;;;;;;;4.81;85.88;101908.34;85915;1294;80888;-58
2022/10/07 04:12:47;;;;;;;14.90;8.80;;;;;;;4.83;85.88;101904.22;85954;1290;81762;-62
2022/10/07 04:14:56;;;;;;;10.40;8.50;;;;;;;4.81;85.97;101906.20;85924;1300;99098;-63
2022/10/07 04:17:06;;;;;;;14.30;8.20;;;;;;;4.78;85.91;101900.52;85977;1294;86574;-63
2022/10/07 04:19:18;;;;;;;11.50;7.80;;;;;;;4.77;85.85;101900.80;86046;1297;93124;-62
2022/10/07 04:21:30;;;;;;;12.50;8.00;;;;;;;4.76;85.95;101902.45;85998;1293;80063;-62
2022/10/07 04:23:40;;;;;;;12.90;7.70;;;;;;;4.75;85.98;101901.30;86007;1297;82637;-58
2022/10/07 04:25:49;;;;;;;10.50;7.50;;;;;;;4.74;85.81;101898.86;86019;1290;97292;-60
2022/10/07 04:27:59;;;;;;;11.50;8.10;;;;;;;4.73;86.00;101896.93;86050;1297;86755;-60
2022/10/07 04:30:11;;;;;;;11.50;7.20;;;;;;;4.73;85.92;101901.95;86007;1291;94643;-58
2022/10/07 04:32:20;;;;;;;13.00;8.30;;;;;;;4.68;86.05;101897.83;86035;1298;81595;-58
2022/10/07 04:34:29;;;;;;;11.00;7.20;;;;;;;4.68;85.92;101894.69;86023;1294;82805;-58
2022/10/07 04:36:38;;;;;;;14.30;7.90;;;;;;;4.69;86.03;101895.31;86016;1295;99000;-61
2022/10/07 04:38:50;;;;;;;12.10;7.80;;;;;;;4.69;86.20;101894.80;86025;1292;88006;-63
2022/10/07 04:40:59;;;;;;;13.30;7.50;;;;;;;4.68;85.91;101893.56;86045;1297;96127;-63
2022/10/07 04:43:19;;;;;;;11.00;8.60;;;;;;;4.70;86.02;101896.10;86093;1292;82184;-63
2022/10/07 04:45:28;;;;;;;10.30;7.30;;;;;;;4.73;86.22;101891.58;86056;1298;82354;-63
2022/10/07 04:47:38;;;;;;;11.20;7.30;;;;;;;4.73;86.06;101893.57;86069;1297;98769;-57
2022/10/07 04:49:48;;;;;;;11.80;7.70;;;;;;;4.71;86.26;101893.72;86065;1297;88009;-61
2022/10/07 04:51:57;;;;;;;12.50;7.00;;;;;;;4.70;86.16;101893.25;86059;1297;92836;-61
2022/10/07 04:54:11;;;;;;;11.00;7.50;;;;;;;4.70;86.28;101890.60;86016;1298;81967;-61
2022/10/07 04:56:22;;;;;;;9.10;6.60;;;;;;;4.73;86.20;101888.42;86035;1298;81662;-59
2022/10/07 04:58:33;;;;;;;13.00;8.10;;;;;;;4.76;86.26;101881.91;86005;1298;98122;-61
2022/10/07 05:00:47;;;;;;;9.70;7.00;;;;;;;4.77;86.49;101885.39;86071;1297;87309;-61
2022/10/07 05:02:56;;;;;;;10.50;6.90;;;;;;;4.79;86.17;101885.11;86035;1293;93776;-58
2022/10/07 05:05:05;;;;;;;11.80;6.30;;;;;;;4.79;86.28;101884.52;85998;1298;81563;-58
2022/10/07 05:07:15;;;;;;;11.70;6.40;;;;;;;4.82;86.33;101879.84;86063;1285;83177;-59
2022/10/07 05:09:25;;;;;;;9.00;6.50;;;;;;;4.84;86.44;101882.59;85988;1298;99048;-58
2022/10/07 05:11:36;;;;;;;11.40;6.50;;;;;;;4.90;86.35;101882.66;86025;1290;88787;-60
2022/10/07 05:13:46;;;;;;;10.30;6.40;;;;;;;4.96;86.67;101881.27;86029;1297;95278;-59
2022/10/07 05:15:57;;;;;;;9.60;6.10;;;;;;;5.02;86.72;101883.48;85998;1290;81208;-58
2022/10/07 05:18:06;;;;;;;10.80;6.50;;;;;;;5.12;86.67;101882.90;86018;1291;82274;-60
2022/10/07 05:20:20;;;;;;;11.20;6.50;;;;;;;5.17;86.65;101880.18;86023;1298;96739;-61
2022/10/07 05:22:31;;;;;;;9.10;6.30;;;;;;;5.24;86.80;101880.36;86014;1298;88454;-57
2022/10/07 05:24:40;;;;;;;7.90;5.80;;;;;;;5.32;86.71;101882.55;86024;1297;93646;-58
2022/10/07 05:26:50;;;;;;;9.00;6.40;;;;;;;5.39;86.73;101884.15;86055;1297;81716;-59
2022/10/07 05:28:59;;;;;;;8.30;5.80;;;;;;;5.50;86.92;101887.04;86087;1297;82760;-57
2022/10/07 05:31:11;;;;;;;12.60;7.00;;;;;;;5.59;86.61;101885.65;86054;1292;97791;-57
2022/10/07 05:33:21;;;;;;;10.40;6.60;;;;;;;5.69;86.71;101886.98;86063;1297;85707;-61
2022/10/07 05:35:32;;;;;;;7.90;5.40;;;;;;;5.80;86.73;101884.27;86076;1298;95560;-61
2022/10/07 05:37:43;;;;;;;7.20;5.30;;;;;;;5.91;86.90;101885.91;86069;1298;80571;-59
2022/10/07 05:39:52;;;;;;;11.30;6.50;;;;;;;6.06;86.93;101882.38;86054;1292;82352;-59
2022/10/07 05:42:01;;;;;;;9.30;6.40;;;;;;;6.48;87.30;101881.02;86037;1297;98797;-59
2022/10/07 05:44:10;;;;;;;12.10;6.70;;;;;;;7.75;88.01;101878.80;86024;1295;88424;-59
2022/10/07 05:46:22;;;;;;;13.00;5.90;;;;;;;9.14;87.34;101875.80;86013;1297;95084;-59
2022/10/07 05:48:33;;;;;;;14.10;6.50;;;;;;;9.19;86.13;101880.11;86005;1297;81807;-62
2022/10/07 05:50:46;;;;;;;9.70;5.80;;;;;;;8.92;85.78;101879.08;86025;1298;82919;-63
2022/10/07 05:52:56;;;;;;;12.00;6.10;;;;;;;8.75;85.68;101878.89;86013;1297;97834;-57
2022/10/07 05:55:09;;;;;;;15.30;7.60;;;;;;;8.92;85.76;101880.32;86033;1292;87471;-57
2022/10/07 05:57:21;;;;;;;12.50;6.50;;;;;;;9.20;85.35;101880.36;86077;1291;92420;-62
2022/10/07 05:59:31;;;;;;;9.50;5.90;;;;;;;9.42;85.22;101876.46;86046;1297;79881;-63
2022/10/07 06:01:41;;;;;;;10.10;6.30;;;;;;;9.43;84.67;101878.52;86028;1298;81761;-61
2022/10/07 06:03:56;;;;;;;11.00;5.90;;;;;;;9.50;84.77;101882.71;86039;1297;96687;-61
2022/10/07 06:06:07;;;;;;;9.10;6.50;;;;;;;9.31;84.61;101884.03;86023;1291;89046;-60
2022/10/07 06:08:17;;;;;;;9.70;5.70;;;;;;;9.18;84.52;101884.90;86021;1289;94504;-58
2022/10/07 06:15:22;;;;;;;12.40;6.00;;;;;;;8.99;84.64;101887.59;86037;1297;97091;-62
2022/10/07 06:17:31;;;;;;;10.20;5.20;;;;;;;8.96;84.62;101889.55;86096;1291;89063;-61
2022/10/07 06:19:41;;;;;;;10.30;6.20;;;;;;;8.92;84.65;101890.94;86061;1297;93762;-61
2022/10/07 06:21:50;;;;;;;7.70;5.40;;;;;;;8.95;84.87;101894.70;86060;1298;81698;-60
2022/10/07 06:23:59;;;;;;;10.30;5.90;;;;;;;8.97;84.77;101896.27;86031;1297;81988;-61
2022/10/07 06:26:12;;;;;;;9.40;5.60;;;;;;;9.02;84.97;101897.20;86060;1298;97749;-57
2022/10/07 06:28:22;;;;;;;11.00;5.60;;;;;;;9.48;85.27;101900.04;86073;1298;89006;-57
2022/10/07 06:30:31;;;;;;;10.60;5.60;;;;;;;9.81;84.81;101901.27;86048;1297;94726;-59
2022/10/07 06:32:40;;;;;;;9.40;5.40;;;;;;;9.79;84.55;101899.89;86028;1297;78768;-59
2022/10/07 06:34:48;;;;;;;12.10;5.50;;;;;;;9.77;84.53;101899.92;85972;1294;83306;-59
2022/10/07 06:36:59;;;;;;;7.80;5.20;;;;;;;9.77;84.52;101899.56;86035;1297;98433;-57
2022/10/07 06:39:10;;;;;;;9.80;5.00;;;;;;;9.83;84.62;101896.09;86019;1291;88761;-57
2022/10/07 06:41:20;;;;;;;9.40;5.40;;;;;;;9.91;84.68;101900.09;86026;1291;94322;-58
2022/10/07 06:43:30;;;;;;;10.00;5.40;;;;;;;10.00;84.71;101900.48;86024;1292;81686;-63
2022/10/07 06:45:41;;;;;;;11.90;5.60;;;;;;;10.06;84.70;101899.35;85956;1297;81921;-61
2022/10/07 06:47:51;;;;;;;11.30;6.10;;;;;;;10.14;84.63;101895.04;86036;1297;98205;-62
2022/10/07 06:50:00;;;;;;;10.60;5.30;;;;;;;10.20;84.66;101898.58;86041;1291;87367;-63
2022/10/07 06:52:08;;;;;;;11.50;5.50;;;;;;;10.27;84.72;101898.81;86026;1298;94700;-59
2022/10/07 06:54:17;;;;;;;8.80;5.30;;;;;;;10.34;84.72;101900.28;86015;1291;82479;-59
2022/10/07 06:56:26;;;;;;;8.80;4.80;;;;;;;10.45;84.80;101900.41;86057;1299;80672;-59
2022/10/07 06:58:36;;;;;;;11.40;6.20;;;;;;;10.58;84.65;101904.17;86073;1291;98727;-62
2022/10/07 07:00:47;;;;;;;11.30;5.90;;;;;;;10.69;84.64;101897.47;86063;1297;87005;-62
2022/10/07 07:02:56;;;;;;;8.80;5.40;;;;;;;10.79;84.62;101899.64;86032;1297;94874;-59
2022/10/07 07:05:08;;;;;;;8.20;4.80;;;;;;;10.83;84.60;101897.63;86043;1297;81255;-59
2022/10/07 07:07:16;;;;;;;10.50;5.50;;;;;;;10.90;84.54;101899.99;86084;1297;82921;-62
2022/10/07 07:09:26;;;;;;;14.00;6.10;;;;;;;11.01;84.56;101898.91;86078;1291;99201;-65
2022/10/07 07:11:42;;;;;;;7.50;4.90;;;;;;;11.13;84.51;101899.96;86107;1291;88790;-60
2022/10/07 07:13:51;;;;;;;9.50;5.50;;;;;;;11.28;84.59;101896.95;86050;1297;94668;-63
2022/10/07 07:16:00;;;;;;;9.40;5.10;;;;;;;11.42;84.48;101897.23;86063;1292;80168;-63
2022/10/07 07:18:11;;;;;;;13.00;5.90;;;;;;;11.59;84.54;101895.39;86044;1296;82796;-57
2022/10/07 07:20:22;;;;;;;10.70;5.60;;;;;;;11.84;84.47;101893.64;86005;1299;99327;-57
2022/10/07 07:22:32;;;;;;;8.60;4.80;;;;;;;12.13;84.42;101893.60;86030;1291;88337;-56
2022/10/07 07:24:43;;;;;;;11.00;5.10;;;;;;;12.56;84.63;101889.48;86009;1296;95251;-59
2022/10/07 07:26:51;;;;;;;13.60;5.40;;;;;;;12.89;84.10;101891.64;86015;1298;80077;-62
2022/10/07 07:29:03;;;;;;;13.60;5.50;;;;;;;13.06;83.65;101891.18;86028;1296;80902;-60
2022/10/07 07:31:12;;;;;;;14.60;6.40;;;;;;;13.49;84.38;101894.16;85976;1297;97002;-61
2022/10/07 07:33:21;;;;;;;9.30;4.10;;;;;;;14.80;83.66;101886.19;86020;1292;86967;-61
2022/10/07 07:35:37;;;;;;;10.70;4.60;;;;;;;16.27;82.50;101881.84;85982;1291;95496;-61
2022/10/07 07:37:46;;;;;;;8.20;4.10;;;;;;;17.94;80.81;101883.17;86000;1291;79080;-63
2022/10/07 07:39:54;;;;;;;7.50;4.10;;;;;;;19.37;78.80;101879.02;86054;1298;82700;-62
2022/10/07 07:42:03;;;;;;;11.50;4.30;;;;;;;20.64;76.78;101877.58;86054;1297;98425;-60
2022/10/07 07:44:22;;;;;;;10.90;4.80;;;;;;;21.73;74.88;101876.82;86045;1297;87166;-61
2022/10/07 07:46:36;;;;;;;11.90;4.70;;;;;;;22.78;73.26;101872.20;86024;1299;93542;-60
2022/10/07 07:48:46;;;;;;;10.00;4.90;;;;;;;23.72;71.67;101871.91;86036;1297;80159;-65
2022/10/07 07:50:54;;;;;;;11.30;4.40;;;;;;;24.44;69.98;101867.06;86069;1297;81104;-63
2022/10/07 07:53:04;;;;;;;7.80;4.50;;;;;;;25.21;68.40;101863.47;86075;1297;98067;-60
2022/10/07 07:55:14;;;;;;;7.20;4.50;;;;;;;25.97;66.82;101871.60;86050;1297;88968;-60
2022/10/07 07:57:23;;;;;;;6.10;3.90;;;;;;;26.72;66.07;101868.27;86037;1292;94154;-59
2022/10/07 07:59:36;;;;;;;9.00;4.40;;;;;;;27.11;63.96;101869.91;86046;1298;80650;-56
2022/10/07 08:01:47;;;;;;;12.30;4.80;;;;;;;27.36;61.23;101863.42;86045;1281;82377;-60
2022/10/07 08:03:55;;;;;;;12.70;5.30;;;;;;;27.57;59.41;101862.00;86040;1292;97919;-61
2022/10/07 08:06:09;;;;;;;9.80;4.70;;;;;;;27.86;57.99;101858.80;86025;1291;86093;-60
2022/10/07 08:08:18;;;;;;;9.80;4.20;;;;;;;27.94;56.87;101857.91;86011;1299;93725;-63
2022/10/07 08:10:30;;;;;;;8.70;4.40;;;;;;;28.02;55.77;101857.41;85983;1299;80421;-63
2022/10/07 08:12:41;;;;;;;6.90;3.60;;;;;;;27.79;54.52;101853.81;85994;1298;81784;-65
2022/10/07 08:14:51;;;;;;;6.90;4.10;;;;;;;27.07;52.49;101851.21;85960;1297;96589;-63
2022/10/07 08:16:59;;;;;;;7.80;3.50;;;;;;;26.17;52.53;101857.65;85999;1297;89542;-62
2022/10/07 08:19:11;;;;;;;10.80;4.80;;;;;;;25.67;52.55;101850.55;86003;1290;94392;-62
2022/10/07 08:21:23;;;;;;;5.20;3.20;;;;;;;24.96;52.54;101850.34;86016;1295;80650;-62
2022/10/07 08:23:34;;;;;;;8.60;3.10;;;;;;;24.17;52.22;101852.62;86040;1297;82993;-61
2022/10/07 08:25:42;;;;;;;7.80;3.30;;;;;;;23.83;51.77;101849.44;86028;1297;98496;-60
2022/10/07 08:27:51;;;;;;;6.70;3.30;;;;;;;23.72;52.09;101844.58;86053;1297;89316;-62
2022/10/07 08:30:02;;;;;;;7.40;3.50;;;;;;;23.63;52.03;101844.80;86044;1299;95824;-61
2022/10/07 08:32:16;;;;;;;6.20;3.20;;;;;;;23.57;51.93;101843.13;86066;1297;80459;-59
2022/10/07 08:34:26;;;;;;;6.70;3.30;;;;;;;23.20;51.16;101837.63;86048;1297;81528;-60
2022/10/07 08:36:35;;;;;;;6.70;3.00;;;;;;;22.70;51.73;101839.33;86027;1297;98156;-58
2022/10/07 08:38:45;;;;;;;6.20;2.70;;;;;;;22.34;52.05;101837.36;86078;1286;87833;-60
2022/10/07 08:41:04;;;;;;;5.90;3.00;;;;;;;22.11;52.31;101838.17;86064;1291;95538;-59
2022/10/07 08:43:13;;;;;;;7.00;3.00;;;;;;;21.86;52.43;101834.77;86051;1299;79058;-62
2022/10/07 08:45:30;;;;;;;7.20;3.00;;;;;;;21.71;52.95;101831.14;86112;1299;82239;-61
2022/10/07 08:47:43;;;;;;;5.40;2.50;;;;;;;21.94;52.63;101829.94;86099;1291;98777;-60
2022/10/07 08:50:03;;;;;;;6.10;2.20;;;;;;;22.07;52.34;101828.56;86088;1297;86807;-61
2022/10/07 08:52:28;;;;;;;4.30;2.50;;;;;;;22.08;51.79;101825.20;86071;1292;94856;-60
2022/10/07 08:54:37;;;;;;;5.10;2.40;;;;;;;22.39;51.77;101820.91;86083;1297;81208;-60
2022/10/07 08:56:49;;;;;;;7.00;2.10;;;;;;;22.57;52.01;101814.71;86076;1290;82193;-61
2022/10/07 08:59:15;;;;;;;7.20;2.20;;;;;;;22.59;52.08;101809.85;86013;1297;96636;-61
2022/10/07 09:01:38;;;;;;;4.40;2.50;;;;;;;22.76;51.20;101806.70;86054;1291;88726;-60
2022/10/07 09:03:56;;;;;;;5.80;2.00;;;;;;;22.82;52.05;101800.92;85983;1292;95468;-62
2022/10/07 09:06:13;;;;;;;6.20;2.40;;;;;;;23.16;52.33;101806.30;85990;1298;80813;-61
2022/10/07 09:08:31;;;;;;;7.30;3.10;;;;;;;23.47;51.88;101802.11;86046;1295;83466;-63
2022/10/07 09:10:47;;;;;;;4.70;2.10;;;;;;;23.98;52.05;101799.19;86041;1298;97730;-64
2022/10/07 09:13:03;;;;;;;5.50;1.90;;;;;;;24.69;50.55;101800.70;86063;1297;85801;-59
2022/10/07 09:15:33;;;;;;;3.40;1.60;;;;;;;25.08;49.32;101798.57;86024;1292;95628;-59
2022/10/07 09:17:50;;;;;;;3.90;1.30;;;;;;;25.37;46.97;101802.15;86031;1291;79758;-60
2022/10/07 09:20:03;;;;;;;4.10;2.00;;;;;;;25.50;45.99;101798.20;86046;1297;82159;-56
2022/10/07 09:22:20;;;;;;;5.00;1.60;;;;;;;25.67;46.57;101798.31;86045;1299;97761;-60
2022/10/07 09:24:34;;;;;;;5.30;2.00;;;;;;;26.17;46.40;101799.05;86099;1295;89069;-62
2022/10/07 09:26:43;;;;;;;4.40;1.60;;;;;;;26.45;45.54;101796.15;86071;1298;93139;-63
2022/10/07 09:28:52;;;;;;;4.20;1.80;;;;;;;26.59;44.19;101793.33;86072;1295;80585;-61
2022/10/07 09:31:02;;;;;;;6.80;2.10;;;;;;;26.57;43.44;101797.11;86092;1291;82642;-60
2022/10/07 09:33:20;;;;;;;4.50;2.00;;;;;;;26.42;42.98;101784.94;86051;1294;100983;-60
2022/10/07 09:35:32;;;;;;;3.40;1.60;;;;;;;26.49;43.48;101781.35;86095;1298;88556;-60
2022/10/07 09:37:56;;;;;;;5.50;1.50;;;;;;;26.35;43.44;101775.72;86075;1282;93795;-61
2022/10/07 09:40:33;;;;;;;3.50;1.10;;;;;;;26.17;43.32;101775.33;86057;1295;79978;-63
2022/10/07 09:42:44;;;;;;;5.80;2.20;;;;;;;25.36;42.38;101776.19;86062;1297;81659;-62
2022/10/07 09:44:58;;;;;;;4.10;1.20;;;;;;;25.04;42.86;101767.75;86047;1290;98934;-60
2022/10/07 09:47:22;;;;;;;3.30;1.20;;;;;;;24.68;43.89;101768.54;86028;1291;87889;-62
2022/10/07 09:49:51;;;;;;;4.70;1.10;;;;;;;24.31;43.09;101763.75;86019;1291;95059;-62
2022/10/07 09:52:05;;;;;;;10.70;2.30;;;;;;;23.56;43.31;101762.40;86030;1291;80489;-54
2022/10/07 09:54:25;;;;;;;3.70;1.20;;;;;;;23.02;43.53;101759.64;86024;1291;82623;-60
2022/10/07 09:56:57;;;;;;;4.60;1.50;;;;;;;22.52;43.19;101756.29;86023;1291;98803;-60
2022/10/07 09:59:26;;;;;;;4.10;1.50;;;;;;;22.10;44.08;101756.78;86036;1295;86927;-58
2022/10/07 10:01:36;;;;;;;3.50;0.90;;;;;;;21.84;44.78;101749.88;86046;1291;95330;-61
2022/10/07 10:03:45;;;;;;;4.10;1.10;;;;;;;21.61;45.18;101745.39;85828;1291;78456;-63
2022/10/07 10:06:00;;;;;;;3.10;0.90;;;;;;;21.29;44.78;101753.90;86040;1293;82597;-62
2022/10/07 10:08:25;;;;;;;5.10;1.30;;;;;;;21.01;45.30;101751.05;86097;1299;99487;-63
2022/10/07 10:10:38;;;;;;;4.20;1.10;;;;;;;20.86;46.33;101748.77;86065;1284;88754;-62
2022/10/07 10:12:52;;;;;;;4.40;1.50;;;;;;;20.79;46.18;101743.98;86082;1299;94499;-61
2022/10/07 10:15:16;;;;;;;3.60;1.20;;;;;;;20.57;46.64;101739.61;86059;1297;79354;-62
2022/10/07 10:17:39;;;;;;;3.50;1.10;;;;;;;20.41;46.84;101731.27;86110;1291;81609;-57
2022/10/07 10:19:49;;;;;;;6.40;1.20;;;;;;;20.29;47.32;101727.98;86066;1292;98332;-59
2022/10/07 10:21:59;;;;;;;7.10;1.40;;;;;;;20.21;47.55;101725.47;86078;1297;89132;-62
2022/10/07 10:24:15;;;;;;;6.50;1.50;;;;;;;20.19;47.77;101723.75;86061;1294;93454;-63
2022/10/07 10:26:56;;;;;;;3.20;1.30;;;;;;;20.19;48.02;101721.52;86063;1298;80649;-62
2022/10/07 10:29:21;;;;;;;4.20;1.00;;;;;;;20.06;47.95;101715.89;86049;1292;82517;-62